createdAt,value
2018-03-18T00:02:19.798Z,-1.30
2018-03-18T00:04:46.298Z,-1.30
2018-03-18T00:07:12.731Z,-1.30
2018-03-18T00:09:39.167Z,-1.20
2018-03-18T00:12:05.561Z,-1.20
2018-03-18T00:14:31.989Z,-1.20
2018-03-18T00:16:58.389Z,-1.30
2018-03-18T00:19:24.797Z,-1.30
2018-03-18T00:21:51.230Z,-1.40
2018-03-18T00:24:17.655Z,-1.40
2018-03-18T00:26:44.066Z,-1.40
2018-03-18T00:29:11.232Z,-1.30
2018-03-18T00:31:37.620Z,-1.40
2018-03-18T00:34:04.067Z,-1.30
2018-03-18T00:36:30.471Z,-1.40
2018-03-18T00:38:56.878Z,-1.30
2018-03-18T00:41:23.336Z,-1.40
2018-03-18T00:43:49.766Z,-1.30
2018-03-18T00:46:16.248Z,-1.40
2018-03-18T00:48:43.377Z,-1.50
2018-03-18T00:51:10.000Z,-1.50
2018-03-18T00:53:36.394Z,-1.50
2018-03-18T00:56:02.803Z,-1.50
2018-03-18T00:58:29.171Z,-1.40
2018-03-18T01:00:55.793Z,-1.50
2018-03-18T01:03:22.186Z,-1.50
2018-03-18T01:05:48.641Z,-1.40
2018-03-18T01:08:15.110Z,-1.40
2018-03-18T01:10:41.598Z,-1.50
2018-03-18T01:13:08.003Z,-1.50
2018-03-18T01:15:34.438Z,-1.60
2018-03-18T01:18:01.616Z,-1.50
2018-03-18T01:20:28.178Z,-1.60
2018-03-18T01:22:54.582Z,-1.50
2018-03-18T01:25:20.972Z,-1.50
2018-03-18T01:27:47.341Z,-1.60
2018-03-18T01:30:13.737Z,-1.70
2018-03-18T01:32:40.959Z,-1.60
2018-03-18T01:35:07.415Z,-1.60
2018-03-18T01:37:34.609Z,-1.60
2018-03-18T01:40:01.079Z,-1.60
2018-03-18T01:42:27.508Z,-1.60
2018-03-18T01:44:53.911Z,-1.60
2018-03-18T01:47:20.340Z,-1.60
2018-03-18T01:49:46.745Z,-1.60
2018-03-18T01:52:13.850Z,-1.60
2018-03-18T01:54:40.226Z,-1.70
2018-03-18T01:57:06.613Z,-1.70
2018-03-18T01:59:33.110Z,-1.70
2018-03-18T02:01:59.486Z,-1.60
2018-03-18T02:04:25.935Z,-1.70
2018-03-18T02:06:53.078Z,-1.80
2018-03-18T02:09:19.474Z,-1.80
2018-03-18T02:11:45.878Z,-1.70
2018-03-18T02:14:12.313Z,-1.70
2018-03-18T02:16:38.725Z,-1.70
2018-03-18T02:19:05.887Z,-1.70
2018-03-18T02:21:32.274Z,-1.70
2018-03-18T02:23:58.657Z,-1.70
2018-03-18T02:26:25.088Z,-1.60
2018-03-18T02:28:51.493Z,-1.70
2018-03-18T02:31:19.119Z,-1.70
2018-03-18T02:33:45.509Z,-1.70
2018-03-18T02:36:11.917Z,-1.60
2018-03-18T02:38:38.329Z,-1.70
2018-03-18T02:41:05.425Z,-1.70
2018-03-18T02:43:31.819Z,-1.70
2018-03-18T02:45:58.193Z,-1.80
2018-03-18T02:48:24.664Z,-1.80
2018-03-18T02:50:51.199Z,-1.80
2018-03-18T02:53:17.639Z,-1.80
2018-03-18T02:55:44.039Z,-1.70
2018-03-18T02:58:10.430Z,-1.80
2018-03-18T03:00:36.857Z,-1.90
2018-03-18T03:03:03.230Z,-1.80
2018-03-18T03:05:29.652Z,-1.80
2018-03-18T03:07:56.018Z,-1.80
2018-03-18T03:10:23.174Z,-1.80
2018-03-18T03:12:50.282Z,-1.80
2018-03-18T03:15:16.754Z,-1.80
2018-03-18T03:17:43.155Z,-1.90
2018-03-18T03:20:09.532Z,-1.90
2018-03-18T03:22:35.920Z,-1.90
2018-03-18T03:25:02.338Z,-1.80
2018-03-18T03:27:28.732Z,-1.80
2018-03-18T03:29:56.691Z,-1.80
2018-03-18T03:32:23.107Z,-1.70
2018-03-18T03:34:49.488Z,-1.80
2018-03-18T03:37:15.933Z,-1.90
2018-03-18T03:39:42.321Z,-1.80
2018-03-18T03:42:08.769Z,-1.80
2018-03-18T03:44:35.912Z,-1.80
2018-03-18T03:47:02.349Z,-1.80
2018-03-18T03:49:28.736Z,-1.90
2018-03-18T03:51:55.863Z,-1.90
2018-03-18T03:54:22.257Z,-1.90
2018-03-18T03:56:48.606Z,-1.80
2018-03-18T03:59:15.073Z,-1.80
2018-03-18T04:01:41.452Z,-1.80
2018-03-18T04:04:07.837Z,-1.80
2018-03-18T04:06:34.975Z,-1.80
2018-03-18T04:09:01.336Z,-1.90
2018-03-18T04:11:27.725Z,-1.90
2018-03-18T04:13:54.087Z,-1.80
2018-03-18T04:16:20.494Z,-1.80
2018-03-18T04:18:46.900Z,-1.70
2018-03-18T04:21:13.274Z,-1.70
2018-03-18T04:23:39.692Z,-1.80
2018-03-18T04:26:06.081Z,-1.80
2018-03-18T04:28:32.513Z,-1.80
2018-03-18T04:30:59.818Z,-1.70
2018-03-18T04:33:26.945Z,-1.80
2018-03-18T04:35:53.309Z,-1.80
2018-03-18T04:38:20.415Z,-1.70
2018-03-18T04:40:46.802Z,-1.80
2018-03-18T04:43:13.189Z,-1.80
2018-03-18T04:45:39.575Z,-1.70
2018-03-18T04:48:05.973Z,-1.70
2018-03-18T04:50:32.318Z,-1.70
2018-03-18T04:52:58.720Z,-1.80
2018-03-18T04:55:25.093Z,-1.80
2018-03-18T04:57:51.487Z,-1.80
2018-03-18T05:00:18.681Z,-1.60
2018-03-18T05:02:45.042Z,-1.70
2018-03-18T05:05:11.458Z,-1.60
2018-03-18T05:07:37.853Z,-1.60
2018-03-18T05:10:04.296Z,-1.60
2018-03-18T05:12:30.727Z,-1.60
2018-03-18T05:14:57.897Z,-1.50
2018-03-18T05:17:24.306Z,-1.50
2018-03-18T05:19:50.704Z,-1.50
2018-03-18T05:22:17.818Z,-1.60
2018-03-18T05:24:44.200Z,-1.70
2018-03-18T05:27:10.622Z,-1.70
2018-03-18T05:29:37.717Z,-1.60
2018-03-18T05:32:04.154Z,-1.60
2018-03-18T05:34:30.522Z,-1.50
2018-03-18T05:36:56.943Z,-1.40
2018-03-18T05:39:23.332Z,-1.50
2018-03-18T05:41:49.679Z,-1.50
2018-03-18T05:44:16.064Z,-1.40
2018-03-18T05:46:42.444Z,-1.40
2018-03-18T05:49:08.863Z,-1.30
2018-03-18T05:51:35.225Z,-1.30
2018-03-18T05:54:01.625Z,-1.20
2018-03-18T05:56:27.971Z,-1.30
2018-03-18T05:58:54.363Z,-1.30
2018-03-18T06:01:20.759Z,-1.20
2018-03-18T06:03:47.893Z,-1.30
2018-03-18T06:06:14.289Z,-1.30
2018-03-18T06:08:40.723Z,-1.30
2018-03-18T06:11:07.085Z,-1.30
2018-03-18T06:13:33.479Z,-1.30
2018-03-18T06:15:59.935Z,-1.20
2018-03-18T06:18:26.303Z,-1.20
2018-03-18T06:20:52.706Z,-1.20
2018-03-18T06:23:19.070Z,-1.10
2018-03-18T06:25:45.519Z,-1.10
2018-03-18T06:28:11.910Z,-1.10
2018-03-18T06:30:38.997Z,-1.00
2018-03-18T06:33:05.378Z,-1.00
2018-03-18T06:35:31.758Z,-1.10
2018-03-18T06:37:58.393Z,-1.10
2018-03-18T06:40:24.759Z,-1.10
2018-03-18T06:42:51.197Z,-1.20
2018-03-18T06:45:17.594Z,-1.20
2018-03-18T06:47:44.020Z,-1.10
2018-03-18T06:50:10.405Z,-1.20
2018-03-18T06:52:36.757Z,-1.20
2018-03-18T06:55:03.227Z,-1.40
2018-03-18T06:57:29.617Z,-1.40
2018-03-18T06:59:56.730Z,-1.30
2018-03-18T07:02:23.138Z,-1.40
2018-03-18T07:04:49.568Z,-1.30
2018-03-18T07:07:15.950Z,-1.30
2018-03-18T07:09:42.406Z,-1.30
2018-03-18T07:12:08.838Z,-1.20
2018-03-18T07:14:35.289Z,-1.20
2018-03-18T07:17:01.682Z,-1.20
2018-03-18T07:19:28.036Z,-1.10
2018-03-18T07:21:54.517Z,-1.10
2018-03-18T07:24:20.905Z,-1.10
2018-03-18T07:26:47.399Z,-1.20
2018-03-18T07:29:14.576Z,-1.10
2018-03-18T07:31:41.015Z,-1.10
2018-03-18T07:34:07.401Z,-1.10
2018-03-18T07:36:33.844Z,-1.10
2018-03-18T07:39:00.259Z,-1.10
2018-03-18T07:41:26.687Z,-1.10
2018-03-18T07:43:53.582Z,-1.00
2018-03-18T07:46:20.100Z,-1.00
2018-03-18T07:48:46.485Z,-0.90
2018-03-18T07:51:12.874Z,-0.90
2018-03-18T07:53:39.315Z,-0.90
2018-03-18T07:56:05.692Z,-1.00
2018-03-18T07:58:32.214Z,-1.10
2018-03-18T08:00:58.627Z,-1.10
2018-03-18T08:03:25.037Z,-1.10
2018-03-18T08:05:51.652Z,-1.00
2018-03-18T08:08:19.719Z,-1.10
2018-03-18T08:10:46.118Z,-1.10
2018-03-18T08:13:12.574Z,-1.30
2018-03-18T08:15:39.008Z,-1.30
2018-03-18T08:18:06.127Z,-1.00
2018-03-18T08:20:32.589Z,-1.10
2018-03-18T08:22:59.739Z,-0.90
2018-03-18T08:25:26.899Z,-0.90
2018-03-18T08:27:53.254Z,-0.90
2018-03-18T08:30:20.031Z,-0.90
2018-03-18T08:32:46.472Z,-1.00
2018-03-18T08:35:12.930Z,-1.00
2018-03-18T08:37:39.965Z,-1.00
2018-03-18T08:40:07.147Z,-0.90
2018-03-18T08:42:33.520Z,-0.90
2018-03-18T08:44:59.940Z,-0.90
2018-03-18T08:47:26.406Z,-0.90
2018-03-18T08:49:53.571Z,-0.80
2018-03-18T08:52:20.025Z,-0.80
2018-03-18T08:54:46.416Z,-0.80
2018-03-18T08:57:13.621Z,-0.80
2018-03-18T08:59:40.033Z,-0.80
2018-03-18T09:02:06.393Z,-0.80
2018-03-18T09:04:32.820Z,-0.70
2018-03-18T09:06:59.273Z,-0.80
2018-03-18T09:09:26.467Z,-0.80
2018-03-18T09:11:52.881Z,-0.90
2018-03-18T09:14:19.355Z,-0.70
2018-03-18T09:16:45.713Z,-0.70
2018-03-18T09:19:12.162Z,-0.60
2018-03-18T09:21:39.336Z,-0.70
2018-03-18T09:24:05.797Z,-0.70
2018-03-18T09:26:32.239Z,-0.60
2018-03-18T09:28:58.665Z,-0.60
2018-03-18T09:31:25.164Z,-0.60
2018-03-18T09:33:51.545Z,-0.40
2018-03-18T09:36:18.037Z,-0.50
2018-03-18T09:38:44.434Z,-0.40
2018-03-18T09:41:11.652Z,-0.30
2018-03-18T09:43:38.107Z,-0.30
2018-03-18T09:46:05.251Z,-0.20
2018-03-18T09:48:32.414Z,-0.10
2018-03-18T09:50:59.599Z,0.00
2018-03-18T09:53:26.015Z,-0.10
2018-03-18T09:55:53.279Z,0.00
2018-03-18T09:58:19.667Z,-0.20
2018-03-18T10:00:47.248Z,-0.30
2018-03-18T10:03:13.737Z,-0.30
2018-03-18T10:05:40.135Z,-0.30
2018-03-18T10:08:07.338Z,-0.20
2018-03-18T10:10:34.504Z,-0.10
2018-03-18T10:13:01.032Z,-0.10
2018-03-18T10:15:27.662Z,-0.20
2018-03-18T10:17:54.856Z,0.00
2018-03-18T10:20:21.375Z,0.00
2018-03-18T10:22:47.835Z,0.10
2018-03-18T10:25:14.249Z,0.20
2018-03-18T10:27:40.733Z,0.10
2018-03-18T10:30:07.199Z,0.00
2018-03-18T10:32:33.686Z,-0.10
2018-03-18T10:35:00.100Z,-0.20
2018-03-18T10:37:26.569Z,-0.10
2018-03-18T10:39:53.718Z,0.30
2018-03-18T10:42:20.134Z,0.20
2018-03-18T10:44:46.532Z,0.30
2018-03-18T10:47:12.948Z,0.40
2018-03-18T10:49:39.355Z,0.40
2018-03-18T10:52:05.805Z,0.20
2018-03-18T10:54:32.242Z,0.10
2018-03-18T10:56:58.731Z,0.30
2018-03-18T10:59:25.974Z,0.30
2018-03-18T11:01:54.398Z,0.30
2018-03-18T11:04:20.871Z,0.10
2018-03-18T11:06:47.370Z,0.10
2018-03-18T11:09:13.790Z,0.20
2018-03-18T11:11:40.218Z,0.20
2018-03-18T11:14:06.678Z,0.20
2018-03-18T11:16:33.071Z,0.40
2018-03-18T11:18:59.540Z,0.40
2018-03-18T11:21:26.006Z,0.40
2018-03-18T11:23:52.526Z,0.40
2018-03-18T11:26:20.007Z,0.30
2018-03-18T11:28:46.352Z,0.30
2018-03-18T11:31:13.547Z,0.60
2018-03-18T11:33:40.002Z,0.50
2018-03-18T11:36:07.998Z,0.80
2018-03-18T11:38:34.511Z,0.80
2018-03-18T11:41:01.711Z,1.20
2018-03-18T11:43:28.233Z,1.10
2018-03-18T11:45:54.734Z,1.20
2018-03-18T11:48:21.398Z,1.10
2018-03-18T11:50:47.832Z,1.10
2018-03-18T11:53:14.334Z,1.10
2018-03-18T11:55:40.756Z,1.10
2018-03-18T11:58:07.224Z,1.20
2018-03-18T12:03:07.652Z,1.20
2018-03-18T12:05:34.918Z,0.80
2018-03-18T12:08:01.382Z,0.80
2018-03-18T12:10:27.898Z,0.70
2018-03-18T12:12:55.259Z,0.70
2018-03-18T12:15:22.705Z,0.80
2018-03-18T12:17:49.188Z,0.70
2018-03-18T12:20:16.379Z,0.90
2018-03-18T12:22:42.928Z,0.90
2018-03-18T12:25:09.507Z,0.80
2018-03-18T12:27:36.058Z,0.80
2018-03-18T12:30:02.588Z,0.90
2018-03-18T12:32:29.610Z,0.70
2018-03-18T12:34:56.035Z,0.70
2018-03-18T12:37:22.518Z,0.80
2018-03-18T12:40:07.308Z,0.80
2018-03-18T12:42:52.870Z,0.80
2018-03-18T12:45:19.425Z,0.80
2018-03-18T12:47:45.868Z,0.80
2018-03-18T12:50:12.400Z,0.70
2018-03-18T12:52:38.805Z,0.90
2018-03-18T12:55:05.253Z,0.90
2018-03-18T12:57:31.704Z,0.90
2018-03-18T12:59:58.129Z,1.00
2018-03-18T13:02:24.588Z,1.10
2018-03-18T13:04:51.823Z,0.80
2018-03-18T13:07:18.440Z,0.80
2018-03-18T13:09:45.405Z,0.70
2018-03-18T13:12:12.200Z,0.70
2018-03-18T13:14:38.710Z,0.80
2018-03-18T13:17:05.883Z,0.90
2018-03-18T13:19:33.045Z,1.00
2018-03-18T13:21:59.491Z,1.00
2018-03-18T13:24:25.969Z,1.00
2018-03-18T13:26:52.390Z,1.10
2018-03-18T13:29:19.622Z,0.90
2018-03-18T13:31:46.117Z,0.90
2018-03-18T13:34:12.575Z,0.80
2018-03-18T13:36:39.048Z,0.80
2018-03-18T13:39:06.214Z,0.60
2018-03-18T13:41:32.701Z,0.60
2018-03-18T13:43:59.117Z,0.70
2018-03-18T13:46:26.194Z,0.80
2018-03-18T13:48:52.658Z,0.80
2018-03-18T13:51:19.915Z,0.90
2018-03-18T13:53:46.341Z,0.80
2018-03-18T13:56:12.870Z,0.90
2018-03-18T13:58:39.315Z,0.80
2018-03-18T14:01:05.766Z,0.70
2018-03-18T14:03:32.375Z,0.80
2018-03-18T14:06:00.012Z,0.80
2018-03-18T14:08:28.469Z,0.80
2018-03-18T14:10:55.760Z,0.80
2018-03-18T14:13:22.963Z,0.80
2018-03-18T14:15:49.498Z,0.80
2018-03-18T14:18:16.035Z,0.60
2018-03-18T14:20:42.738Z,0.70
2018-03-18T14:23:10.080Z,0.70
2018-03-18T14:25:36.551Z,0.70
2018-03-18T14:28:03.182Z,0.70
2018-03-18T14:30:29.732Z,0.70
2018-03-18T14:32:56.227Z,0.70
2018-03-18T14:35:22.842Z,0.90
2018-03-18T14:37:58.432Z,0.70
2018-03-18T14:40:24.887Z,0.80
2018-03-18T14:42:51.335Z,0.80
2018-03-18T14:45:17.829Z,0.70
2018-03-18T14:47:44.274Z,0.70
2018-03-18T14:50:10.753Z,0.70
2018-03-18T14:52:37.232Z,0.60
2018-03-18T14:55:03.762Z,0.70
2018-03-18T14:57:30.187Z,0.70
2018-03-18T14:59:56.776Z,0.80
2018-03-18T15:02:23.273Z,0.80
2018-03-18T15:04:49.720Z,0.70
2018-03-18T15:07:17.092Z,0.60
2018-03-18T15:09:43.587Z,0.60
2018-03-18T15:12:10.042Z,0.60
2018-03-18T15:14:36.480Z,0.70
2018-03-18T15:17:03.642Z,0.80
2018-03-18T15:19:30.811Z,0.80
2018-03-18T15:21:57.248Z,0.80
2018-03-18T15:24:23.704Z,0.80
2018-03-18T15:26:50.154Z,0.70
2018-03-18T15:29:16.630Z,0.70
2018-03-18T15:31:43.115Z,0.60
2018-03-18T15:34:09.726Z,0.50
2018-03-18T15:36:36.199Z,0.40
2018-03-18T15:39:02.804Z,0.50
2018-03-18T15:41:29.300Z,0.40
2018-03-18T15:43:55.837Z,0.40
2018-03-18T15:46:22.302Z,0.40
2018-03-18T15:48:48.766Z,0.40
2018-03-18T15:51:15.902Z,0.50
2018-03-18T15:53:42.415Z,0.50
2018-03-18T15:56:08.841Z,0.50
2018-03-18T15:58:35.247Z,0.40
2018-03-18T16:01:01.673Z,0.40
2018-03-18T16:03:28.139Z,0.40
2018-03-18T16:05:54.538Z,0.40
2018-03-18T16:08:20.978Z,0.40
2018-03-18T16:10:47.498Z,0.40
2018-03-18T16:13:14.909Z,0.40
2018-03-18T16:15:42.094Z,0.40
2018-03-18T16:18:09.363Z,0.40
2018-03-18T16:20:35.864Z,0.40
2018-03-18T16:23:03.123Z,0.40
2018-03-18T16:25:30.383Z,0.40
2018-03-18T16:27:57.522Z,0.40
2018-03-18T16:30:43.840Z,0.40
2018-03-18T16:33:10.398Z,0.40
2018-03-18T16:35:36.817Z,0.40
2018-03-18T16:38:03.309Z,0.40
2018-03-18T16:40:29.750Z,0.30
2018-03-18T16:42:56.924Z,0.40
2018-03-18T16:45:23.329Z,0.30
2018-03-18T16:47:49.832Z,0.40
2018-03-18T16:50:16.965Z,0.40
2018-03-18T16:52:43.413Z,0.50
2018-03-18T16:55:10.586Z,0.40
2018-03-18T16:57:37.906Z,0.30
2018-03-18T17:00:04.413Z,0.30
2018-03-18T17:02:30.956Z,0.30
2018-03-18T17:05:04.523Z,0.30
2018-03-18T17:07:31.705Z,0.30
2018-03-18T17:09:58.143Z,0.30
2018-03-18T17:12:24.620Z,0.30
2018-03-18T17:14:51.907Z,0.20
2018-03-18T17:17:18.408Z,0.20
2018-03-18T17:19:45.581Z,0.20
2018-03-18T17:22:12.084Z,0.20
2018-03-18T17:24:38.527Z,0.20
2018-03-18T17:27:05.664Z,0.20
2018-03-18T17:29:32.146Z,0.10
2018-03-18T17:31:58.564Z,0.20
2018-03-18T17:34:25.051Z,0.20
2018-03-18T17:36:51.531Z,0.20
2018-03-18T17:39:18.148Z,0.20
2018-03-18T17:41:44.773Z,0.10
2018-03-18T17:44:29.852Z,0.10
2018-03-18T17:47:14.660Z,0.10
2018-03-18T17:49:59.438Z,0.10
2018-03-18T17:52:44.276Z,0.10
2018-03-18T17:55:26.012Z,0.00
2018-03-18T17:57:52.448Z,0.00
2018-03-18T18:00:18.995Z,0.00
2018-03-18T18:02:45.411Z,0.10
2018-03-18T18:05:11.946Z,0.10
2018-03-18T18:07:38.396Z,0.10
2018-03-18T18:10:04.994Z,0.00
2018-03-18T18:12:31.508Z,0.00
2018-03-18T18:14:57.957Z,0.00
2018-03-18T18:17:24.462Z,0.00
2018-03-18T18:19:51.390Z,0.00
2018-03-18T18:22:17.889Z,0.00
2018-03-18T18:24:44.415Z,0.00
2018-03-18T18:27:10.977Z,0.10
2018-03-18T18:29:37.678Z,0.10
2018-03-18T18:32:04.147Z,0.10
2018-03-18T18:34:30.601Z,0.10
2018-03-18T18:36:57.078Z,0.00
2018-03-18T18:39:23.495Z,0.10
2018-03-18T18:41:49.948Z,0.00
2018-03-18T18:44:16.433Z,-0.10
2018-03-18T18:46:42.977Z,-0.10
2018-03-18T18:49:09.526Z,-0.10
2018-03-18T18:51:35.956Z,-0.10
2018-03-18T18:54:03.303Z,-0.10
2018-03-18T18:56:29.808Z,-0.10
2018-03-18T18:58:56.316Z,-0.20
2018-03-18T19:01:23.617Z,-0.20
2018-03-18T19:03:50.086Z,-0.20
2018-03-18T19:06:16.710Z,-0.20
2018-03-18T19:08:43.147Z,-0.10
2018-03-18T19:11:10.419Z,-0.20
2018-03-18T19:13:38.323Z,-0.20
2018-03-18T19:16:04.835Z,-0.20
2018-03-18T19:18:31.293Z,-0.40
2018-03-18T19:20:57.724Z,-0.30
2018-03-18T19:23:24.194Z,-0.20
2018-03-18T19:25:50.609Z,-0.10
2018-03-18T19:28:17.127Z,-0.20
2018-03-18T19:30:43.643Z,-0.10
2018-03-18T19:33:10.125Z,-0.20
2018-03-18T19:35:36.691Z,-0.20
2018-03-18T19:38:03.289Z,-0.30
2018-03-18T19:40:29.813Z,-0.30
2018-03-18T19:42:56.422Z,-0.30
2018-03-18T19:45:22.910Z,-0.30
2018-03-18T19:47:51.308Z,-0.30
2018-03-18T19:50:17.877Z,-0.20
2018-03-18T19:52:44.352Z,-0.20
2018-03-18T19:55:10.835Z,-0.10
2018-03-18T19:57:37.267Z,-0.10
2018-03-18T20:00:03.750Z,-0.20
2018-03-18T20:02:30.243Z,-0.20
2018-03-18T20:04:56.977Z,-0.20
2018-03-18T20:07:23.461Z,-0.20
2018-03-18T20:09:50.022Z,-0.20
2018-03-18T20:12:17.472Z,-0.30
2018-03-18T20:14:43.955Z,-0.30
2018-03-18T20:17:10.425Z,-0.30
2018-03-18T20:19:37.641Z,-0.30
2018-03-18T20:22:04.191Z,-0.40
2018-03-18T20:24:30.704Z,-0.40
2018-03-18T20:26:57.217Z,-0.50
2018-03-18T20:29:23.702Z,-0.60
2018-03-18T20:31:50.174Z,-0.60
2018-03-18T20:34:16.695Z,-0.60
2018-03-18T20:36:43.265Z,-0.70
2018-03-18T20:39:09.773Z,-0.70
2018-03-18T20:41:36.303Z,-0.60
2018-03-18T20:44:02.837Z,-0.60
2018-03-18T20:46:29.599Z,-0.60
2018-03-18T20:48:56.138Z,-0.60
2018-03-18T20:51:23.395Z,-0.60
2018-03-18T20:53:49.827Z,-0.60
2018-03-18T20:56:16.415Z,-0.60
2018-03-18T20:58:42.848Z,-0.50
2018-03-18T21:01:09.361Z,-0.50
2018-03-18T21:03:36.019Z,-0.40
2018-03-18T21:06:02.482Z,-0.50
2018-03-18T21:08:28.904Z,-0.50
2018-03-18T21:10:55.425Z,-0.50
2018-03-18T21:13:21.914Z,-0.60
2018-03-18T21:15:48.445Z,-0.60
2018-03-18T21:18:15.719Z,-0.60
2018-03-18T21:20:42.965Z,-0.60
2018-03-18T21:23:10.428Z,-0.60
2018-03-18T21:25:37.024Z,-0.70
2018-03-18T21:28:03.550Z,-0.70
2018-03-18T21:30:29.974Z,-0.60
2018-03-18T21:32:56.449Z,-0.60
2018-03-18T21:35:22.923Z,-0.50
2018-03-18T21:37:49.412Z,-0.60
2018-03-18T21:40:15.896Z,-0.60
2018-03-18T21:42:42.340Z,-0.60
2018-03-18T21:45:08.879Z,-0.50
2018-03-18T21:47:35.376Z,-0.50
2018-03-18T21:50:02.675Z,-0.50
2018-03-18T21:52:29.283Z,-0.50
2018-03-18T21:54:55.789Z,-0.50
2018-03-18T21:57:22.227Z,-0.50
2018-03-18T21:59:48.685Z,-0.50
2018-03-18T22:02:15.146Z,-0.50
2018-03-18T22:04:41.578Z,-0.60
2018-03-18T22:07:08.057Z,-0.60
2018-03-18T22:09:34.543Z,-0.60
2018-03-18T22:12:00.977Z,-0.50
2018-03-18T22:14:27.410Z,-0.50
2018-03-18T22:16:53.851Z,-0.60
2018-03-18T22:19:20.300Z,-0.60
2018-03-18T22:24:19.979Z,-0.60
2018-03-18T22:26:46.440Z,-0.60
2018-03-18T22:29:12.871Z,-0.50
2018-03-18T22:31:39.304Z,-0.60
2018-03-18T22:34:06.492Z,-0.60
2018-03-18T22:36:32.985Z,-0.60
2018-03-18T22:38:59.375Z,-0.50
2018-03-18T22:41:25.803Z,-0.50
2018-03-18T22:43:52.267Z,-0.50
2018-03-18T22:46:18.730Z,-0.50
2018-03-18T22:48:45.207Z,-0.40
2018-03-18T22:51:11.662Z,-0.40
2018-03-18T22:53:38.101Z,-0.50
2018-03-18T22:56:05.301Z,-0.50
2018-03-18T22:58:31.786Z,-0.60
2018-03-18T23:00:58.267Z,-0.50
2018-03-18T23:03:24.707Z,-0.50
2018-03-18T23:05:51.166Z,-0.50
2018-03-18T23:08:17.592Z,-0.50
2018-03-18T23:10:44.006Z,-0.60
2018-03-18T23:13:10.434Z,-0.70
2018-03-18T23:15:36.852Z,-0.70
2018-03-18T23:18:03.391Z,-0.70
2018-03-18T23:20:30.582Z,-0.60
2018-03-18T23:22:57.129Z,-0.70
2018-03-18T23:25:23.625Z,-0.70
2018-03-18T23:27:49.998Z,-0.60
2018-03-18T23:30:16.518Z,-0.60
2018-03-18T23:32:42.911Z,-0.60
2018-03-18T23:35:09.377Z,-0.60
2018-03-18T23:37:36.644Z,-0.50
2018-03-18T23:40:03.234Z,-0.50
2018-03-18T23:42:29.747Z,-0.50
2018-03-18T23:44:56.234Z,-0.50
2018-03-18T23:47:22.648Z,-0.60
2018-03-18T23:49:49.086Z,-0.60
2018-03-18T23:52:15.509Z,-0.50
2018-03-18T23:54:41.948Z,-0.60
2018-03-18T23:57:08.346Z,-0.50
2018-03-18T23:59:34.775Z,-0.50
